Time;durP1;ratioP1;P1;durP2;ratioP2;P2;SDS_P1;SDS_P2;PMS_P1;PMS_P2;Temp;Humidity;BMP_temperature;BMP_pressure;BME280_temperature;BME280_humidity;BME280_pressure;Samples;Min_cycle;Max_cycle;Signal;HPM_P1;HPM_P2
2022/08/13 00:01:37;;;;;;;9.43;4.55;;;20.50;99.90;;;;;;5033739;28;20652;-82
2022/08/13 00:04:14;;;;;;;8.50;4.80;;;20.40;99.90;;;;;;5023444;28;20025;-78
2022/08/13 00:09:09;;;;;;;7.20;3.67;;;21.00;99.90;;;;;;5041449;28;20254;-76
2022/08/13 00:14:33;;;;;;;9.38;4.97;;;21.00;99.90;;;;;;5041556;28;20039;-77
2022/08/13 00:17:00;;;;;;;9.13;4.25;;;19.50;99.90;;;;;;5039263;28;20084;-78
2022/08/13 00:19:26;;;;;;;9.90;4.47;;;20.20;99.90;;;;;;5041162;28;20021;-76
2022/08/13 00:21:55;;;;;;;12.65;5.05;;;20.20;99.90;;;;;;5023679;28;20044;-76
2022/08/13 00:24:21;;;;;;;7.75;4.22;;;20.00;99.90;;;;;;5040683;28;20017;-75
2022/08/13 00:26:49;;;;;;;7.80;4.10;;;19.90;99.90;;;;;;5023214;28;20175;-80
2022/08/13 00:29:15;;;;;;;9.63;5.10;;;19.60;99.90;;;;;;5041015;28;20027;-76
2022/08/13 00:31:45;;;;;;;10.00;4.97;;;18.30;99.90;;;;;;5021964;28;20030;-84
2022/08/13 00:34:11;;;;;;;10.15;4.22;;;19.50;99.90;;;;;;5002240;28;20033;-76
2022/08/13 00:36:37;;;;;;;9.77;5.10;;;19.80;99.90;;;;;;5020930;28;20040;-82
2022/08/13 00:39:06;;;;;;;10.02;5.15;;;19.80;99.90;;;;;;5021071;28;20014;-75
2022/08/13 00:41:38;;;;;;;9.20;4.07;;;18.80;99.90;;;;;;5021369;28;20017;-76
2022/08/13 00:44:08;;;;;;;8.38;4.32;;;19.70;99.90;;;;;;5020721;28;20030;-81
2022/08/13 00:46:36;;;;;;;9.60;4.75;;;19.40;99.90;;;;;;5018711;28;20037;-78
2022/08/13 00:49:03;;;;;;;9.73;4.63;;;19.40;99.90;;;;;;5040881;28;20052;-79
2022/08/13 00:51:30;;;;;;;8.55;4.10;;;19.40;99.90;;;;;;5039886;28;20106;-79
2022/08/13 00:53:58;;;;;;;8.80;4.28;;;19.40;99.90;;;;;;5031466;28;20090;-75
2022/08/13 00:56:34;;;;;;;9.77;4.75;;;19.60;99.90;;;;;;5020191;28;20067;-76
2022/08/13 00:59:07;;;;;;;8.38;3.80;;;19.80;99.90;;;;;;5002720;28;20664;-82
2022/08/13 01:01:35;;;;;;;7.80;4.77;;;20.00;99.90;;;;;;5002812;28;20044;-78
2022/08/13 01:04:03;;;;;;;9.48;3.90;;;20.30;99.90;;;;;;5002665;28;20335;-81
2022/08/13 01:06:31;;;;;;;11.60;4.60;;;20.40;99.90;;;;;;5002345;28;20060;-79
2022/08/13 01:09:00;;;;;;;7.28;4.05;;;20.50;99.90;;;;;;5020192;28;20076;-77
2022/08/13 01:11:29;;;;;;;9.15;4.45;;;20.60;99.90;;;;;;5019705;28;20534;-76
2022/08/13 01:13:58;;;;;;;10.40;5.22;;;20.80;99.90;;;;;;5002139;28;20034;-77
2022/08/13 01:16:27;;;;;;;8.80;4.20;;;20.90;99.90;;;;;;5028378;28;20074;-76
2022/08/13 01:18:54;;;;;;;9.93;4.40;;;20.90;99.90;;;;;;5022730;28;20106;-76
2022/08/13 01:21:23;;;;;;;8.45;4.88;;;20.80;99.90;;;;;;5020164;28;20021;-78
2022/08/13 01:23:53;;;;;;;8.82;4.93;;;20.60;99.90;;;;;;5002563;28;20652;-76
2022/08/13 01:26:23;;;;;;;9.95;4.82;;;20.60;99.90;;;;;;5005903;28;20013;-77
2022/08/13 01:28:51;;;;;;;10.55;5.97;;;20.40;99.90;;;;;;5039768;28;20020;-78
2022/08/13 01:31:19;;;;;;;7.85;4.18;;;20.20;99.90;;;;;;5021268;28;20013;-77
2022/08/13 01:33:59;;;;;;;9.90;5.07;;;20.20;99.90;;;;;;5039663;28;20223;-77
2022/08/13 01:36:26;;;;;;;11.65;5.75;;;20.20;99.90;;;;;;5021479;28;20536;-78
2022/08/13 01:39:05;;;;;;;9.65;5.38;;;20.00;99.90;;;;;;5038802;28;20035;-75
2022/08/13 01:41:34;;;;;;;11.55;5.32;;;20.00;99.90;;;;;;5025821;28;20009;-77
2022/08/13 01:44:04;;;;;;;11.15;4.85;;;19.90;99.90;;;;;;5021467;28;20039;-81
2022/08/13 01:52:07;;;;;;;11.48;5.75;;;19.40;99.90;;;;;;5039254;28;20094;-77
2022/08/13 01:54:42;;;;;;;9.40;5.47;;;16.00;99.90;;;;;;5038494;28;20035;-76
2022/08/13 01:57:08;;;;;;;10.00;5.20;;;18.80;99.90;;;;;;5021607;28;20017;-83
2022/08/13 01:59:39;;;;;;;12.43;5.97;;;19.00;99.90;;;;;;5019588;28;20029;-76
2022/08/13 02:02:10;;;;;;;12.73;6.93;;;19.00;99.90;;;;;;5020866;28;20036;-79
2022/08/13 02:04:37;;;;;;;11.30;5.95;;;19.00;99.90;;;;;;5039087;28;20202;-78
2022/08/13 02:07:02;;;;;;;11.90;5.55;;;19.20;99.90;;;;;;5038835;28;20025;-77
2022/08/13 02:09:28;;;;;;;9.75;4.68;;;19.30;99.90;;;;;;5039364;28;20379;-76
2022/08/13 02:11:54;;;;;;;10.63;5.40;;;19.50;99.90;;;;;;5039092;28;20589;-77
2022/08/13 02:14:21;;;;;;;12.63;6.00;;;19.80;99.90;;;;;;5015153;28;20029;-77
2022/08/13 02:16:47;;;;;;;12.18;5.80;;;20.10;99.90;;;;;;5001016;28;20034;-76
2022/08/13 02:19:16;;;;;;;12.88;6.45;;;19.40;99.90;;;;;;5019270;28;20017;-76
2022/08/13 02:21:44;;;;;;;13.38;5.63;;;19.10;99.90;;;;;;5019215;28;20022;-76
2022/08/13 02:24:13;;;;;;;12.75;5.70;;;19.50;99.90;;;;;;5001778;28;20033;-77
2022/08/13 02:26:42;;;;;;;9.48;5.13;;;19.30;99.90;;;;;;5001361;28;20049;-76
2022/08/13 02:29:12;;;;;;;11.50;5.30;;;19.20;99.90;;;;;;5024996;28;20109;-76
2022/08/13 02:31:42;;;;;;;9.40;5.00;;;19.10;99.90;;;;;;5025567;28;20045;-84
2022/08/13 02:34:11;;;;;;;8.27;4.38;;;19.20;99.90;;;;;;5018361;28;20023;-77
2022/08/13 02:36:40;;;;;;;10.90;4.60;;;19.30;99.90;;;;;;5018530;28;20096;-76
2022/08/13 02:39:09;;;;;;;9.40;4.28;;;19.60;99.90;;;;;;5018188;28;20022;-78
2022/08/13 02:41:40;;;;;;;8.63;4.30;;;19.80;99.90;;;;;;5019122;28;20017;-76
2022/08/13 02:44:10;;;;;;;8.43;4.35;;;17.40;99.90;;;;;;5018674;28;20036;-76
2022/08/13 02:46:42;;;;;;;9.85;4.45;;;21.40;99.90;;;;;;5000248;28;20124;-79
2022/08/13 02:49:34;;;;;;;10.23;5.13;;;19.90;99.90;;;;;;5000677;28;20026;-77
2022/08/13 02:52:03;;;;;;;7.43;3.85;;;20.90;99.90;;;;;;5001071;28;20088;-76
2022/08/13 02:54:30;;;;;;;10.95;4.95;;;20.20;99.90;;;;;;5001226;28;20025;-75
2022/08/13 02:56:56;;;;;;;10.35;5.65;;;20.20;99.90;;;;;;5019158;28;20021;-77
2022/08/13 02:59:24;;;;;;;11.00;5.78;;;19.70;99.90;;;;;;5002603;28;20561;-76
2022/08/13 03:01:57;;;;;;;13.52;6.32;;;19.20;99.90;;;;;;5015935;28;20116;-77
2022/08/13 03:04:26;;;;;;;10.98;6.15;;;18.90;99.90;;;;;;5038345;28;20032;-76
2022/08/13 03:06:52;;;;;;;18.52;6.45;;;18.50;99.90;;;;;;5038581;28;20053;-76
2022/08/13 03:09:20;;;;;;;12.35;6.50;;;18.10;99.90;;;;;;5038379;28;20104;-76
2022/08/13 03:11:48;;;;;;;11.55;7.10;;;18.00;99.90;;;;;;5038287;28;20039;-77
2022/08/13 03:14:15;;;;;;;13.85;6.68;;;17.90;99.90;;;;;;5011942;28;20030;-76
2022/08/13 03:16:40;;;;;;;12.60;6.45;;;17.70;99.90;;;;;;5018389;28;20026;-79
2022/08/13 03:19:07;;;;;;;12.05;6.57;;;17.60;99.90;;;;;;4999734;28;20095;-75
2022/08/13 03:21:50;;;;;;;11.70;6.47;;;17.50;99.90;;;;;;5059250;22;20055;-83
2022/08/13 03:24:21;;;;;;;11.57;5.87;;;17.40;99.90;;;;;;5079646;28;20020;-82
2022/08/13 03:26:47;;;;;;;13.35;6.75;;;17.30;99.90;;;;;;5098471;28;20008;-77
2022/08/13 03:29:14;;;;;;;10.50;5.43;;;;;;;;;;5079635;28;20617;-82
2022/08/13 03:31:40;;;;;;;10.32;5.18;;;17.20;99.90;;;;;;5079793;28;20601;-76
2022/08/13 03:34:06;;;;;;;12.70;5.78;;;17.10;99.90;;;;;;5098183;28;20008;-82
2022/08/13 03:36:35;;;;;;;11.30;5.97;;;17.10;99.90;;;;;;5079776;28;20024;-77
2022/08/13 03:39:01;;;;;;;9.90;5.75;;;17.00;99.90;;;;;;5097581;28;20031;-77
2022/08/13 03:41:30;;;;;;;13.20;7.40;;;16.90;99.90;;;;;;5079956;28;20027;-76
2022/08/13 03:43:56;;;;;;;18.65;8.40;;;16.80;99.90;;;;;;5079715;28;20022;-77
2022/08/13 03:46:25;;;;;;;16.55;8.20;;;16.80;99.90;;;;;;5079882;28;20577;-79
2022/08/13 03:48:52;;;;;;;14.18;5.47;;;16.80;99.90;;;;;;5079965;28;20023;-75
2022/08/13 03:51:22;;;;;;;13.00;6.03;;;17.20;99.90;;;;;;5080788;28;20047;-76
2022/08/13 03:53:50;;;;;;;11.95;5.07;;;17.20;99.90;;;;;;5082557;28;20047;-77
2022/08/13 03:56:19;;;;;;;10.38;5.18;;;18.00;99.90;;;;;;5083361;28;20020;-79
2022/08/13 03:58:49;;;;;;;8.93;3.80;;;18.30;99.90;;;;;;5101652;28;20020;-77
2022/08/13 04:01:21;;;;;;;6.85;3.50;;;18.70;99.90;;;;;;5083226;28;20019;-75
2022/08/13 04:03:47;;;;;;;8.82;4.13;;;18.90;99.90;;;;;;5083628;28;20024;-75
2022/08/13 04:06:16;;;;;;;8.65;4.00;;;18.90;99.90;;;;;;5102099;28;20015;-77
2022/08/13 04:08:44;;;;;;;7.45;4.15;;;19.10;99.90;;;;;;5101499;28;20102;-82
2022/08/13 04:11:17;;;;;;;12.73;4.75;;;19.40;99.90;;;;;;5083232;28;20026;-77
2022/08/13 04:13:43;;;;;;;10.48;4.90;;;19.20;99.90;;;;;;5083044;28;20032;-77
2022/08/13 04:16:18;;;;;;;9.30;4.15;;;18.90;99.90;;;;;;5083107;28;20039;-82
2022/08/13 04:18:45;;;;;;;7.05;3.67;;;18.90;99.90;;;;;;5101629;28;20020;-82
2022/08/13 04:21:14;;;;;;;8.93;4.22;;;18.40;99.90;;;;;;5101255;28;20209;-76
2022/08/13 04:23:42;;;;;;;8.35;3.40;;;19.30;99.90;;;;;;5101625;28;20572;-76
2022/08/13 04:26:13;;;;;;;7.38;3.78;;;19.50;99.90;;;;;;5083298;28;20024;-76
2022/08/13 04:28:41;;;;;;;9.65;4.15;;;18.00;99.90;;;;;;5102238;28;20022;-77
2022/08/13 04:31:10;;;;;;;8.70;4.88;;;20.10;99.90;;;;;;5083504;28;20252;-75
2022/08/13 04:33:37;;;;;;;10.77;3.95;;;20.20;99.90;;;;;;5083440;28;20031;-77
2022/08/13 04:36:04;;;;;;;7.90;3.97;;;20.10;99.90;;;;;;5084179;28;20082;-76
2022/08/13 04:38:30;;;;;;;8.02;4.10;;;18.00;99.90;;;;;;5101735;28;20019;-77
2022/08/13 04:40:56;;;;;;;7.88;3.90;;;19.90;99.90;;;;;;5083676;28;20022;-76
2022/08/13 04:43:22;;;;;;;7.38;3.63;;;19.90;99.90;;;;;;5101801;28;20019;-78
2022/08/13 04:45:49;;;;;;;7.93;3.75;;;19.90;99.90;;;;;;5101461;28;20024;-78
2022/08/13 04:48:16;;;;;;;8.88;4.75;;;20.20;99.90;;;;;;5101230;28;20031;-77
2022/08/13 04:50:48;;;;;;;9.43;4.43;;;20.40;99.90;;;;;;5083073;28;20008;-75
2022/08/13 04:53:38;;;;;;;9.40;3.72;;;23.30;99.90;;;;;;5083323;28;20097;-79
2022/08/13 04:56:04;;;;;;;8.27;4.05;;;20.30;99.90;;;;;;5064177;28;20689;-76
2022/08/13 04:58:35;;;;;;;8.13;3.80;;;20.50;99.90;;;;;;5063536;28;20020;-79
2022/08/13 05:01:09;;;;;;;8.18;3.85;;;21.10;99.90;;;;;;5082568;28;20015;-76
2022/08/13 05:03:39;;;;;;;11.40;4.15;;;21.30;99.90;;;;;;5082416;28;20031;-78
2022/08/13 05:06:06;;;;;;;8.85;3.83;;;20.80;99.90;;;;;;5082339;28;20020;-77
2022/08/13 05:08:33;;;;;;;8.38;4.00;;;20.90;99.90;;;;;;5082729;28;20082;-77
2022/08/13 05:11:00;;;;;;;9.48;4.38;;;20.90;99.90;;;;;;5100884;28;20020;-77
2022/08/13 05:13:32;;;;;;;9.02;4.38;;;19.40;99.90;;;;;;5082911;28;20028;-77
2022/08/13 05:16:00;;;;;;;7.85;4.15;;;20.90;99.90;;;;;;5082137;28;20733;-75
2022/08/13 05:18:29;;;;;;;10.65;4.97;;;20.80;99.90;;;;;;5101383;28;20023;-77
2022/08/13 05:20:56;;;;;;;10.88;4.53;;;20.40;99.90;;;;;;5100486;28;20036;-81
2022/08/13 05:23:24;;;;;;;8.30;4.03;;;20.50;99.90;;;;;;5100647;28;20476;-76
2022/08/13 05:25:50;;;;;;;6.38;3.50;;;20.40;99.90;;;;;;5100870;28;20073;-77
2022/08/13 05:28:17;;;;;;;8.23;4.28;;;20.50;99.90;;;;;;5082252;28;20020;-80
2022/08/13 05:30:46;;;;;;;10.10;4.53;;;20.00;99.90;;;;;;5082350;28;20032;-77
2022/08/13 05:33:24;;;;;;;8.40;3.80;;;20.20;99.90;;;;;;5100372;28;20031;-76
2022/08/13 05:35:55;;;;;;;10.50;5.35;;;20.20;99.90;;;;;;5082773;28;20026;-77
2022/08/13 05:38:22;;;;;;;8.38;3.95;;;20.10;99.90;;;;;;5100092;28;20110;-76
2022/08/13 05:40:56;;;;;;;8.23;4.18;;;20.30;99.90;;;;;;5081877;28;20027;-75
2022/08/13 05:43:28;;;;;;;7.57;4.03;;;20.60;99.90;;;;;;5100298;28;20058;-76
2022/08/13 05:45:59;;;;;;;7.15;3.33;;;20.40;99.90;;;;;;5100038;28;20087;-77
2022/08/13 05:48:26;;;;;;;9.80;4.30;;;20.80;99.90;;;;;;5100069;28;20023;-81
2022/08/13 05:50:53;;;;;;;14.55;5.00;;;20.60;99.90;;;;;;5099582;28;20031;-77
2022/08/13 05:53:19;;;;;;;8.63;4.25;;;20.60;99.90;;;;;;5080961;28;20038;-77
2022/08/13 05:55:47;;;;;;;10.63;5.03;;;20.10;99.90;;;;;;5081366;28;20019;-78
2022/08/13 05:58:13;;;;;;;11.80;4.72;;;19.80;99.90;;;;;;5081324;28;20038;-79
2022/08/13 06:03:29;;;;;;;9.60;4.50;;;19.30;99.90;;;;;;5087829;28;20081;-76
2022/08/13 06:05:58;;;;;;;10.15;5.90;;;19.30;99.90;;;;;;5094139;28;20023;-77
2022/08/13 06:08:31;;;;;;;10.65;5.68;;;19.10;99.90;;;;;;5068047;28;20012;-82
2022/08/13 06:10:59;;;;;;;9.55;4.80;;;19.00;99.90;;;;;;5068332;28;20034;-77
2022/08/13 06:13:33;;;;;;;12.25;5.53;;;19.10;99.90;;;;;;5071116;28;20748;-77
2022/08/13 06:16:08;;;;;;;11.98;6.13;;;19.00;99.90;;;;;;5073397;28;20028;-77
2022/08/13 06:18:49;;;;;;;11.25;5.95;;;18.90;99.90;;;;;;5073406;28;20022;-77
2022/08/13 06:21:18;;;;;;;10.93;5.30;;;18.90;99.90;;;;;;5090893;28;20048;-78
2022/08/13 06:23:50;;;;;;;12.48;5.75;;;18.90;99.90;;;;;;5078864;28;20023;-81
2022/08/13 06:26:29;;;;;;;9.93;5.35;;;18.90;99.90;;;;;;5075249;28;20211;-80
2022/08/13 06:29:01;;;;;;;12.48;5.95;;;19.00;99.90;;;;;;5083262;28;20097;-77
2022/08/13 06:31:38;;;;;;;10.65;5.68;;;18.90;99.90;;;;;;5070137;28;20016;-77
2022/08/13 06:34:15;;;;;;;12.35;5.28;;;19.00;99.90;;;;;;5062065;28;20044;-81
2022/08/13 06:36:44;;;;;;;12.73;6.07;;;19.70;99.90;;;;;;5061027;28;20111;-79
2022/08/13 06:39:17;;;;;;;10.55;5.28;;;19.00;99.90;;;;;;5064035;28;20028;-78
2022/08/13 06:41:44;;;;;;;;;;;17.90;99.90;;;;;;5068028;28;20027;-77
2022/08/13 06:44:17;;;;;;;11.32;5.97;;;19.40;99.90;;;;;;5072439;28;19911;-77
2022/08/13 06:46:44;;;;;;;12.85;6.35;;;19.30;99.90;;;;;;5074600;28;20019;-77
2022/08/13 06:49:12;;;;;;;12.75;6.22;;;19.40;99.90;;;;;;5090907;28;20019;-77
2022/08/13 06:51:42;;;;;;;12.27;6.57;;;19.70;99.90;;;;;;5088010;28;20028;-80
2022/08/13 06:54:19;;;;;;;13.40;6.68;;;19.50;99.90;;;;;;5063669;28;20097;-78
2022/08/13 06:56:53;;;;;;;12.25;6.90;;;19.60;99.90;;;;;;5078066;28;20691;-78
2022/08/13 06:59:27;;;;;;;14.95;7.30;;;17.20;99.90;;;;;;5069667;28;20112;-78
2022/08/13 07:02:08;;;;;;;11.43;6.80;;;19.30;99.90;;;;;;5086921;28;20016;-79
2022/08/13 07:04:36;;;;;;;14.40;6.88;;;20.00;99.90;;;;;;5094837;28;20023;-78
2022/08/13 07:07:03;;;;;;;14.20;7.38;;;20.00;99.90;;;;;;5088401;28;20012;-79
2022/08/13 07:09:40;;;;;;;13.90;7.72;;;20.50;99.90;;;;;;5072649;28;20024;-76
2022/08/13 07:12:07;;;;;;;14.48;7.70;;;18.50;99.90;;;;;;5103473;28;20086;-77
2022/08/13 07:14:33;;;;;;;12.85;6.53;;;19.90;99.90;;;;;;5077513;28;20028;-76
2022/08/13 07:17:09;;;;;;;;;;;;;;;;;;;;;
2022/08/13 07:19:37;;;;;;;12.15;6.32;;;;;;;;;;5087001;28;20034;-81
2022/08/13 07:22:06;;;;;;;10.77;4.95;;;20.10;99.90;;;;;;5070991;28;20039;-77
2022/08/13 07:24:32;;;;;;;12.43;5.05;;;20.40;99.90;;;;;;5095079;28;20027;-77
2022/08/13 07:27:10;;;;;;;13.98;6.20;;;20.90;99.90;;;;;;5097112;28;20024;-76
2022/08/13 07:29:36;;;;;;;11.48;5.78;;;21.10;99.90;;;;;;5100764;28;20020;-75
2022/08/13 07:32:16;;;;;;;11.23;5.55;;;21.20;99.90;;;;;;5084546;28;20024;-73
2022/08/13 07:34:45;;;;;;;11.30;6.95;;;21.30;99.90;;;;;;5081932;28;20028;-73
2022/08/13 07:37:21;;;;;;;12.85;6.90;;;20.80;99.90;;;;;;5083225;28;20023;-74
2022/08/13 07:39:47;;;;;;;13.23;6.72;;;;;;;;;;5081790;28;20031;-78
2022/08/13 07:42:15;;;;;;;13.93;7.15;;;21.00;99.90;;;;;;5082332;28;20673;-76
2022/08/13 07:44:42;;;;;;;13.52;6.90;;;20.90;99.90;;;;;;5092256;28;20023;-82
2022/08/13 07:47:12;;;;;;;13.27;7.13;;;20.90;99.90;;;;;;5101691;28;20028;-78
2022/08/13 07:49:40;;;;;;;12.27;6.80;;;20.90;99.90;;;;;;5073223;28;20770;-76
2022/08/13 07:52:09;;;;;;;12.50;6.68;;;20.90;99.90;;;;;;5101375;28;20715;-76
2022/08/13 07:54:35;;;;;;;12.27;6.40;;;19.30;99.90;;;;;;5083055;28;20027;-77
2022/08/13 07:57:01;;;;;;;12.48;6.72;;;21.50;99.90;;;;;;5101187;28;20180;-76
2022/08/13 07:59:32;;;;;;;13.88;6.82;;;18.80;99.90;;;;;;5083044;28;20654;-80
2022/08/13 08:02:01;;;;;;;13.32;7.47;;;20.30;99.90;;;;;;5081731;28;20040;-79
2022/08/13 08:04:37;;;;;;;13.02;6.50;;;21.20;99.90;;;;;;5101414;28;20020;-80
2022/08/13 08:07:03;;;;;;;14.95;7.10;;;;;;;;;;5082391;28;20417;-77
2022/08/13 08:09:30;;;;;;;17.13;6.32;;;21.30;99.90;;;;;;5082659;28;20024;-77
2022/08/13 08:14:46;;;;;;;11.07;6.18;;;21.90;99.90;;;;;;5087231;28;20302;-75
2022/08/13 08:17:12;;;;;;;11.88;5.07;;;;;;;;;;5061705;28;20111;-75
2022/08/13 08:19:41;;;;;;;12.25;5.82;;;21.70;99.40;;;;;;5093859;28;20032;-73
2022/08/13 08:22:10;;;;;;;13.93;7.85;;;21.90;99.90;;;;;;5082778;28;20055;-77
2022/08/13 08:24:37;;;;;;;13.73;7.20;;;;;;;;;;5082966;28;20576;-76
2022/08/13 08:27:06;;;;;;;14.98;6.28;;;21.30;99.70;;;;;;5100844;28;20023;-76
2022/08/13 08:29:33;;;;;;;14.70;6.95;;;21.30;99.90;;;;;;5089774;28;20079;-74
2022/08/13 08:31:59;;;;;;;12.80;6.60;;;21.30;99.90;;;;;;5082488;28;20036;-74
2022/08/13 08:34:26;;;;;;;11.77;5.90;;;21.10;99.90;;;;;;5089110;28;20035;-78
2022/08/13 08:36:55;;;;;;;11.73;6.25;;;21.60;99.90;;;;;;5082979;28;20033;-76
2022/08/13 08:45:13;;;;;;;11.63;6.82;;;21.50;99.90;;;;;;5101070;28;20794;-76
2022/08/13 08:47:41;;;;;;;13.35;6.15;;;21.80;99.40;;;;;;5075619;28;20256;-80
2022/08/13 08:50:09;;;;;;;13.80;6.72;;;22.10;99.90;;;;;;5100226;28;20077;-75
2022/08/13 08:55:21;;;;;;;13.30;7.25;;;22.70;98.50;;;;;;5100448;28;20711;-74
2022/08/13 08:57:50;;;;;;;14.63;6.82;;;23.00;97.90;;;;;;5072179;28;20021;-76
2022/08/13 09:00:18;;;;;;;13.15;6.30;;;23.20;97.30;;;;;;5088418;28;20000;-75
2022/08/13 09:02:52;;;;;;;13.35;6.93;;;23.40;97.60;;;;;;5086648;28;20023;-76
2022/08/13 09:05:25;;;;;;;11.90;6.65;;;23.70;97.50;;;;;;5088028;28;20514;-74
2022/08/13 09:07:52;;;;;;;10.68;6.45;;;24.20;96.90;;;;;;5071944;28;20298;-77
2022/08/13 09:10:21;;;;;;;12.00;6.15;;;23.90;96.40;;;;;;5073787;28;20036;-79
2022/08/13 09:12:48;;;;;;;15.98;7.32;;;24.00;96.20;;;;;;5066651;28;20028;-76
2022/08/13 09:15:17;;;;;;;13.75;7.03;;;23.90;96.00;;;;;;5091446;28;20047;-77
2022/08/13 09:17:45;;;;;;;12.88;7.45;;;23.90;95.80;;;;;;5084362;28;20990;-74
2022/08/13 09:20:19;;;;;;;10.85;6.35;;;24.30;95.90;;;;;;5100162;28;20054;-75
2022/08/13 09:22:47;;;;;;;12.93;6.45;;;24.10;95.70;;;;;;5099486;28;20047;-75
2022/08/13 09:25:16;;;;;;;13.75;7.10;;;24.30;95.60;;;;;;5099462;28;20028;-77
2022/08/13 09:27:56;;;;;;;13.57;7.38;;;23.90;95.50;;;;;;5081171;28;20020;-76
2022/08/13 09:30:23;;;;;;;12.85;7.40;;;24.00;95.50;;;;;;5099632;28;20008;-72
2022/08/13 09:32:53;;;;;;;12.80;7.35;;;23.50;96.10;;;;;;5099264;28;20031;-76
2022/08/13 09:35:22;;;;;;;15.68;7.57;;;23.50;96.10;;;;;;5082395;28;20027;-76
2022/08/13 09:37:50;;;;;;;12.52;6.20;;;23.80;96.20;;;;;;5099914;28;20019;-79
2022/08/13 09:40:17;;;;;;;12.98;6.35;;;24.20;95.50;;;;;;5081368;28;20032;-75
2022/08/13 09:42:50;;;;;;;14.15;6.82;;;24.00;95.30;;;;;;5081845;28;20056;-80
2022/08/13 09:45:17;;;;;;;10.07;6.00;;;23.70;95.60;;;;;;5099846;28;20651;-74
2022/08/13 09:47:43;;;;;;;13.02;5.80;;;24.10;95.40;;;;;;5098853;28;20023;-75
2022/08/13 09:50:10;;;;;;;14.27;6.95;;;24.20;95.80;;;;;;5080427;28;20473;-76
2022/08/13 09:52:37;;;;;;;12.90;7.68;;;24.20;96.10;;;;;;5097110;28;20096;-76
2022/08/13 09:55:09;;;;;;;14.48;7.40;;;24.40;95.20;;;;;;5086396;28;20076;-73
2022/08/13 09:58:00;;;;;;;12.57;6.97;;;25.50;94.90;;;;;;5089066;28;20018;-75
2022/08/13 10:00:29;;;;;;;12.88;6.40;;;25.00;94.30;;;;;;5083219;28;20687;-75
2022/08/13 10:02:59;;;;;;;12.07;7.05;;;25.10;94.20;;;;;;5068222;28;20641;-80
2022/08/13 10:05:34;;;;;;;12.68;7.15;;;24.30;93.70;;;;;;5082699;28;20099;-76
2022/08/13 10:08:05;;;;;;;10.93;5.97;;;25.40;93.60;;;;;;5060299;28;20123;-77
2022/08/13 10:10:32;;;;;;;11.27;6.20;;;25.80;93.20;;;;;;5096653;28;20128;-77
2022/08/13 10:13:00;;;;;;;12.35;6.10;;;25.60;93.40;;;;;;5099100;28;20113;-77
2022/08/13 10:15:27;;;;;;;13.63;7.22;;;25.90;93.70;;;;;;5098792;28;20032;-77
2022/08/13 10:17:56;;;;;;;12.90;6.53;;;26.40;92.60;;;;;;5099120;28;20090;-77
2022/08/13 10:20:27;;;;;;;10.93;6.10;;;25.80;92.70;;;;;;5099487;28;20579;-79
2022/08/13 10:22:53;;;;;;;9.88;5.38;;;25.90;92.50;;;;;;5098647;28;20046;-72
2022/08/13 10:25:19;;;;;;;10.82;5.78;;;26.00;92.40;;;;;;5097987;28;20015;-74
2022/08/13 10:27:47;;;;;;;11.82;6.45;;;25.40;91.90;;;;;;5060002;28;20059;-75
2022/08/13 10:30:13;;;;;;;11.65;6.20;;;25.70;91.90;;;;;;5083081;28;20004;-76
2022/08/13 10:32:46;;;;;;;12.93;7.65;;;26.20;92.30;;;;;;5088444;28;20023;-75
2022/08/13 10:35:12;;;;;;;;;;;24.00;92.30;;;;;;5088591;28;20043;-74
2022/08/13 10:37:53;;;;;;;11.73;6.35;;;25.90;92.90;;;;;;5090563;28;19950;-77
2022/08/13 10:40:20;;;;;;;11.90;6.72;;;25.50;92.90;;;;;;5085439;28;20010;-82
2022/08/13 10:42:46;;;;;;;14.73;6.35;;;25.40;93.00;;;;;;5086459;28;20587;-73
2022/08/13 10:45:13;;;;;;;13.70;7.72;;;25.50;93.20;;;;;;5086738;28;20019;-80
2022/08/13 10:47:51;;;;;;;14.32;6.82;;;25.90;94.00;;;;;;5076608;28;20036;-75
2022/08/13 10:50:19;;;;;;;13.18;7.25;;;25.40;93.80;;;;;;5081422;28;20022;-73
2022/08/13 10:52:46;;;;;;;14.07;7.25;;;25.70;93.20;;;;;;5092782;28;20028;-75
2022/08/13 10:55:13;;;;;;;11.90;7.25;;;25.90;93.40;;;;;;5100582;28;20012;-77
2022/08/13 10:57:42;;;;;;;14.57;7.85;;;25.20;93.70;;;;;;5081783;28;20723;-73
2022/08/13 11:00:11;;;;;;;16.45;7.65;;;23.60;93.70;;;;;;5079413;28;20077;-75
2022/08/13 11:02:40;;;;;;;11.43;7.05;;;25.10;94.10;;;;;;5095316;28;20659;-73
2022/08/13 11:05:08;;;;;;;16.38;8.60;;;25.30;94.10;;;;;;5082081;28;20535;-75
2022/08/13 11:07:36;;;;;;;15.38;7.95;;;25.40;93.90;;;;;;5095820;28;20032;-73
2022/08/13 11:10:08;;;;;;;14.70;8.40;;;25.60;93.70;;;;;;5103430;28;20047;-76
2022/08/13 11:12:36;;;;;;;14.40;7.85;;;26.00;94.20;;;;;;5104582;28;20019;-81
2022/08/13 11:15:04;;;;;;;12.15;6.90;;;25.60;93.80;;;;;;5105932;28;20027;-76
2022/08/13 11:17:31;;;;;;;16.90;7.85;;;25.50;93.80;;;;;;5086563;28;20658;-76
2022/08/13 11:19:57;;;;;;;15.25;8.27;;;25.40;94.20;;;;;;5087766;28;20118;-83
2022/08/13 11:22:28;;;;;;;15.00;8.57;;;24.80;95.00;;;;;;5085156;28;20044;-75
2022/08/13 11:24:55;;;;;;;17.25;8.85;;;24.10;95.90;;;;;;5103717;28;20050;-74
2022/08/13 11:27:21;;;;;;;13.32;8.68;;;24.20;96.00;;;;;;5101110;28;20016;-75
2022/08/13 11:29:47;;;;;;;12.95;7.32;;;24.30;96.10;;;;;;5095284;28;20125;-74
2022/08/13 11:32:13;;;;;;;18.30;8.93;;;24.50;96.00;;;;;;5083794;28;20674;-76
2022/08/13 11:34:39;;;;;;;14.82;8.20;;;21.70;95.10;;;;;;5098011;28;20047;-78
2022/08/13 11:37:05;;;;;;;16.45;8.45;;;24.70;95.90;;;;;;5102076;28;20099;-74
2022/08/13 11:39:31;;;;;;;15.65;9.23;;;24.60;97.00;;;;;;5100653;28;20030;-83
2022/08/13 11:41:56;;;;;;;14.48;8.57;;;24.60;96.70;;;;;;5072068;28;20024;-73
2022/08/13 11:44:22;;;;;;;16.15;8.93;;;24.10;96.30;;;;;;5081038;28;20402;-78
2022/08/13 11:46:48;;;;;;;13.77;7.75;;;24.00;96.50;;;;;;5092586;28;20020;-75
2022/08/13 11:49:14;;;;;;;16.38;8.98;;;23.80;96.60;;;;;;5102783;28;20030;-74
2022/08/13 11:51:48;;;;;;;13.02;7.53;;;23.80;97.30;;;;;;5084736;28;20027;-83
2022/08/13 11:54:18;;;;;;;14.18;8.35;;;23.70;97.00;;;;;;5085212;28;20090;-80
2022/08/13 11:56:44;;;;;;;17.85;9.02;;;23.70;97.60;;;;;;5066809;28;20029;-87
2022/08/13 11:59:10;;;;;;;16.27;9.48;;;23.20;97.80;;;;;;5083170;28;20024;-75
2022/08/13 12:02:07;;;;;;;15.70;8.85;;;23.00;97.60;;;;;;5081288;28;20017;-87
2022/08/13 12:04:36;;;;;;;18.35;9.48;;;23.40;99.80;;;;;;4982386;28;20682;-79
2022/08/13 12:07:05;;;;;;;14.95;9.07;;;22.90;98.20;;;;;;4998682;28;20026;-78
2022/08/13 12:09:31;;;;;;;16.83;9.23;;;22.70;98.40;;;;;;4989846;28;20036;-85
2022/08/13 12:11:56;;;;;;;18.15;10.35;;;22.60;98.70;;;;;;5004817;28;20030;-74
2022/08/13 12:14:23;;;;;;;16.33;8.77;;;;;;;;;;5004477;28;20034;-76
2022/08/13 12:16:48;;;;;;;13.10;8.30;;;22.60;98.60;;;;;;4986860;28;20047;-74
2022/08/13 12:19:14;;;;;;;17.10;9.25;;;22.20;99.10;;;;;;5009802;28;20770;-75
2022/08/13 12:21:40;;;;;;;18.00;9.20;;;22.90;99.70;;;;;;5018152;28;20300;-78
2022/08/13 12:24:06;;;;;;;14.65;8.48;;;22.40;99.50;;;;;;5015322;28;20044;-74
2022/08/13 12:26:32;;;;;;;14.50;9.45;;;22.50;99.40;;;;;;5010300;28;20044;-79
2022/08/13 12:28:57;;;;;;;17.95;10.13;;;22.70;99.90;;;;;;5008327;28;20025;-74
2022/08/13 12:31:23;;;;;;;18.55;9.38;;;22.20;99.90;;;;;;5007291;28;20773;-74
2022/08/13 12:33:49;;;;;;;16.75;9.13;;;22.10;99.90;;;;;;5005011;28;20077;-76
2022/08/13 12:36:15;;;;;;;16.48;9.25;;;21.80;99.90;;;;;;5007056;28;20045;-80
2022/08/13 12:38:41;;;;;;;20.13;10.13;;;21.70;99.90;;;;;;5006911;28;20014;-77
2022/08/13 12:41:10;;;;;;;21.90;10.57;;;22.40;99.90;;;;;;5055094;28;20040;-72
2022/08/13 12:43:36;;;;;;;17.38;9.30;;;21.50;99.90;;;;;;5071006;28;20019;-75
2022/08/13 12:46:02;;;;;;;19.23;10.25;;;21.60;99.90;;;;;;5092772;28;20020;-83
2022/08/13 12:48:32;;;;;;;16.95;10.15;;;21.50;99.90;;;;;;5078817;28;20031;-75
2022/08/13 12:51:00;;;;;;;17.48;9.45;;;;;;;;;;5064765;28;20040;-74
2022/08/13 12:53:26;;;;;;;19.10;10.25;;;21.40;99.90;;;;;;5098686;28;20024;-75
2022/08/13 12:55:52;;;;;;;17.10;9.80;;;21.30;99.90;;;;;;5102004;28;20015;-76
2022/08/13 12:58:25;;;;;;;17.05;10.25;;;21.50;99.90;;;;;;5101420;28;20034;-76
2022/08/13 13:00:53;;;;;;;18.58;9.70;;;21.40;99.90;;;;;;5081304;28;20024;-79
2022/08/13 13:03:21;;;;;;;18.90;9.75;;;21.70;99.90;;;;;;5082161;28;20027;-78
2022/08/13 13:05:50;;;;;;;19.05;9.55;;;22.00;99.90;;;;;;5083012;28;20653;-76
2022/08/13 13:08:27;;;;;;;16.83;9.75;;;22.40;99.90;;;;;;5081256;28;20024;-76
2022/08/13 13:10:55;;;;;;;22.00;11.02;;;22.70;99.90;;;;;;5063501;28;20077;-75
2022/08/13 13:13:24;;;;;;;17.88;11.07;;;22.80;99.90;;;;;;5062159;28;20089;-77
2022/08/13 13:15:51;;;;;;;19.80;11.10;;;22.30;99.90;;;;;;5066424;28;20024;-76
2022/08/13 13:18:19;;;;;;;20.55;11.95;;;22.10;99.90;;;;;;5079971;28;20023;-75